createdAt,value
2022-11-23T00:00:47.040Z,51.99
2022-11-23T00:03:17.059Z,52.17
2022-11-23T00:05:44.874Z,52.15
2022-11-23T00:08:12.704Z,52.08
2022-11-23T00:10:40.599Z,51.99
2022-11-23T00:13:08.456Z,52.22
2022-11-23T00:15:36.577Z,51.84
2022-11-23T00:18:04.471Z,52.17
2022-11-23T00:20:33.644Z,52.24
2022-11-23T00:23:01.519Z,52.45
2022-11-23T00:25:29.623Z,52.22
2022-11-23T00:27:57.450Z,52.31
2022-11-23T00:30:25.356Z,52.16
2022-11-23T00:32:55.426Z,52.24
2022-11-23T00:35:24.087Z,52.45
2022-11-23T00:37:53.223Z,51.98
2022-11-23T00:40:21.056Z,52.38
2022-11-23T00:42:48.863Z,52.18
2022-11-23T00:45:16.744Z,52.22
2022-11-23T00:47:44.690Z,52.05
2022-11-23T00:50:12.503Z,52.38
2022-11-23T00:52:40.287Z,52.22
2022-11-23T00:55:10.168Z,52.42
2022-11-23T00:57:38.627Z,52.23
2022-11-23T01:00:08.545Z,52.29
2022-11-23T01:02:37.105Z,52.25
2022-11-23T01:05:05.125Z,52.26
2022-11-23T01:07:33.457Z,52.19
2022-11-23T01:10:01.316Z,52.54
2022-11-23T01:12:30.924Z,52.05
2022-11-23T01:14:58.829Z,52.25
2022-11-23T01:17:26.655Z,51.98
2022-11-23T01:19:54.434Z,52.17
2022-11-23T01:22:22.844Z,52.22
2022-11-23T01:24:50.936Z,52.19
2022-11-23T01:27:18.711Z,52.28
2022-11-23T01:29:47.885Z,52.33
2022-11-23T01:32:15.696Z,52.46
2022-11-23T01:34:43.491Z,52.56
2022-11-23T01:37:12.131Z,52.15
2022-11-23T01:39:40.191Z,52.38
2022-11-23T01:42:08.696Z,52.15
2022-11-23T01:44:38.513Z,52.41
2022-11-23T01:47:10.050Z,52.50
2022-11-23T01:49:41.819Z,52.62
2022-11-23T01:52:14.631Z,52.47
2022-11-23T01:54:47.651Z,52.41
2022-11-23T01:57:20.402Z,52.38
2022-11-23T01:59:49.002Z,52.23
2022-11-23T02:02:18.410Z,52.51
2022-11-23T02:04:51.572Z,52.35
2022-11-23T02:07:21.623Z,52.44
2022-11-23T02:09:50.296Z,52.02
2022-11-23T02:12:18.172Z,52.28
2022-11-23T02:14:46.782Z,52.36
2022-11-23T02:17:14.996Z,51.93
2022-11-23T02:19:55.431Z,52.34
2022-11-23T02:22:30.477Z,52.17
2022-11-23T02:25:01.283Z,51.99
2022-11-23T02:27:30.985Z,52.32
2022-11-23T02:30:01.321Z,52.12
2022-11-23T02:32:30.620Z,52.49
2022-11-23T02:34:58.408Z,52.36
2022-11-23T02:37:26.641Z,52.41
2022-11-23T02:39:57.469Z,51.90
2022-11-23T02:42:26.760Z,52.16
2022-11-23T02:45:06.528Z,51.98
2022-11-23T02:47:34.381Z,51.90
2022-11-23T02:50:02.281Z,51.99
2022-11-23T02:52:30.110Z,51.95
2022-11-23T02:54:58.372Z,51.97
2022-11-23T02:57:26.207Z,52.28
2022-11-23T02:59:53.974Z,52.46
2022-11-23T03:02:23.204Z,52.17
2022-11-23T03:04:51.010Z,52.45
2022-11-23T03:07:21.295Z,52.52
2022-11-23T03:09:50.360Z,52.55
2022-11-23T03:12:19.776Z,52.48
2022-11-23T03:14:48.339Z,52.68
2022-11-23T03:17:18.202Z,52.61
2022-11-23T03:19:48.294Z,52.21
2022-11-23T03:22:16.161Z,52.36
2022-11-23T03:24:44.003Z,52.39
2022-11-23T03:27:16.682Z,52.91
2022-11-23T03:29:45.225Z,52.82
2022-11-23T03:32:17.963Z,53.51
2022-11-23T03:34:50.490Z,52.45
2022-11-23T03:37:20.526Z,52.98
2022-11-23T03:39:51.244Z,52.94
2022-11-23T03:42:41.478Z,52.62
2022-11-23T03:45:10.653Z,52.59
2022-11-23T03:47:38.622Z,52.56
2022-11-23T03:50:09.368Z,52.81
2022-11-23T03:52:38.319Z,52.65
2022-11-23T03:55:07.067Z,52.51
2022-11-23T03:57:35.371Z,52.87
2022-11-23T04:00:05.441Z,53.05
2022-11-23T04:02:41.068Z,52.84
2022-11-23T04:05:28.157Z,52.61
2022-11-23T04:08:22.081Z,52.48
2022-11-23T04:10:50.555Z,52.79
2022-11-23T04:13:23.405Z,52.83
2022-11-23T04:15:51.306Z,52.69
2022-11-23T04:18:19.266Z,52.92
2022-11-23T04:20:48.622Z,52.88
2022-11-23T04:23:17.381Z,52.63
2022-11-23T04:25:46.397Z,52.91
2022-11-23T04:28:15.023Z,52.85
2022-11-23T04:30:45.069Z,53.21
2022-11-23T04:33:13.738Z,53.19
2022-11-23T04:35:41.578Z,52.73
2022-11-23T04:38:10.932Z,52.74
2022-11-23T04:40:39.032Z,52.94
2022-11-23T04:43:09.835Z,53.11
2022-11-23T04:45:40.336Z,52.68
2022-11-23T04:48:13.779Z,53.20
2022-11-23T04:50:46.625Z,52.92
2022-11-23T04:53:21.052Z,53.14
2022-11-23T04:55:48.948Z,52.83
2022-11-23T04:58:18.062Z,52.88
2022-11-23T05:00:51.734Z,52.57
2022-11-23T05:03:19.965Z,52.32
2022-11-23T05:05:47.723Z,52.78
2022-11-23T05:08:15.573Z,52.56
2022-11-23T05:11:07.036Z,52.38
2022-11-23T05:13:34.912Z,52.47
2022-11-23T05:16:04.256Z,52.89
2022-11-23T05:18:32.172Z,52.68
2022-11-23T05:21:00.045Z,52.46
2022-11-23T05:23:28.126Z,52.83
2022-11-23T05:25:56.332Z,52.67
2022-11-23T05:28:41.754Z,52.66
2022-11-23T05:31:13.764Z,53.00
2022-11-23T05:33:43.593Z,52.45
2022-11-23T05:36:13.724Z,52.62
2022-11-23T05:38:42.712Z,52.74
2022-11-23T05:41:15.899Z,53.14
2022-11-23T05:43:46.467Z,52.91
2022-11-23T05:46:20.167Z,52.99
2022-11-23T05:48:48.341Z,53.12
2022-11-23T05:51:16.093Z,52.72
2022-11-23T05:53:45.926Z,53.25
2022-11-23T05:56:37.372Z,52.88
2022-11-23T05:59:17.440Z,53.00
2022-11-23T06:01:50.089Z,53.31
2022-11-23T06:04:25.200Z,52.83
2022-11-23T06:06:54.445Z,52.90
2022-11-23T06:09:22.251Z,53.45
2022-11-23T06:11:52.914Z,53.25
2022-11-23T06:14:23.027Z,53.09
2022-11-23T06:16:52.041Z,53.33
2022-11-23T06:19:40.106Z,53.17
2022-11-23T06:22:08.330Z,53.32
2022-11-23T06:24:43.374Z,53.17
2022-11-23T06:27:37.425Z,53.07
2022-11-23T06:30:15.808Z,53.15
2022-11-23T06:32:44.190Z,53.06
2022-11-23T06:35:11.995Z,53.26
2022-11-23T06:37:42.046Z,53.43
2022-11-23T06:40:11.428Z,53.20
2022-11-23T06:42:40.952Z,53.19
2022-11-23T06:45:32.722Z,53.00
2022-11-23T06:48:05.318Z,53.11
2022-11-23T06:50:40.176Z,53.54
2022-11-23T06:53:08.324Z,53.20
2022-11-23T06:55:43.627Z,52.87
2022-11-23T06:58:13.311Z,52.80
2022-11-23T07:00:42.712Z,53.11
2022-11-23T07:03:19.418Z,53.25
2022-11-23T07:05:48.206Z,52.87
2022-11-23T07:08:16.155Z,53.27
2022-11-23T07:10:43.987Z,52.78
2022-11-23T07:13:15.699Z,52.69
2022-11-23T07:15:44.989Z,52.61
2022-11-23T07:18:13.229Z,53.07
2022-11-23T07:20:47.908Z,52.75
2022-11-23T07:23:15.773Z,52.63
2022-11-23T07:25:43.774Z,52.43
2022-11-23T07:28:13.635Z,52.43
2022-11-23T07:30:41.577Z,52.75
2022-11-23T07:33:13.319Z,52.64
2022-11-23T07:35:42.601Z,52.50
2022-11-23T07:38:10.338Z,52.06
2022-11-23T07:40:39.558Z,52.62
2022-11-23T07:43:13.764Z,52.26
2022-11-23T07:45:41.693Z,52.04
2022-11-23T07:48:16.595Z,51.89
2022-11-23T07:50:47.932Z,51.70
2022-11-23T07:53:17.665Z,52.15
2022-11-23T07:55:45.517Z,51.71
2022-11-23T07:58:13.858Z,52.15
2022-11-23T08:00:41.866Z,51.87
2022-11-23T08:03:29.861Z,51.70
2022-11-23T08:05:59.655Z,51.86
2022-11-23T08:08:27.572Z,52.01
2022-11-23T08:10:55.405Z,51.60
2022-11-23T08:13:23.798Z,51.53
2022-11-23T08:15:55.479Z,51.83
2022-11-23T08:18:24.588Z,51.65
2022-11-23T08:20:52.603Z,51.88
2022-11-23T08:23:22.411Z,51.51
2022-11-23T08:25:50.204Z,51.49
2022-11-23T08:28:18.688Z,51.28
2022-11-23T08:30:46.976Z,51.53
2022-11-23T08:33:15.428Z,51.21
2022-11-23T08:35:43.854Z,51.42
2022-11-23T08:38:12.168Z,51.39
2022-11-23T08:40:41.471Z,51.19
2022-11-23T08:43:09.421Z,51.49
2022-11-23T08:45:37.395Z,51.24
2022-11-23T08:48:06.097Z,51.22
2022-11-23T08:50:35.755Z,51.34
2022-11-23T08:53:03.566Z,51.44
2022-11-23T08:55:31.344Z,51.40
2022-11-23T08:58:04.065Z,50.86
2022-11-23T09:00:34.026Z,51.25
2022-11-23T09:03:02.315Z,51.49
2022-11-23T09:05:31.342Z,51.15
2022-11-23T09:08:01.801Z,50.74
2022-11-23T09:10:29.784Z,50.77
2022-11-23T09:12:57.805Z,51.16
2022-11-23T09:15:27.307Z,50.86
2022-11-23T09:17:55.261Z,50.97
2022-11-23T09:20:23.165Z,50.92
2022-11-23T09:22:56.605Z,49.88
2022-11-23T09:25:25.287Z,50.48
2022-11-23T09:27:59.491Z,49.64
2022-11-23T09:30:29.131Z,49.86
2022-11-23T09:32:59.960Z,50.44
2022-11-23T09:35:27.915Z,50.43
2022-11-23T09:37:57.453Z,49.80
2022-11-23T09:40:26.834Z,49.45
2022-11-23T09:43:32.525Z,47.89
2022-11-23T09:46:10.898Z,47.93
2022-11-23T09:49:01.239Z,47.71
2022-11-23T09:51:32.119Z,48.57
2022-11-23T09:54:05.177Z,48.58
2022-11-23T09:56:35.703Z,48.69
2022-11-23T09:59:11.649Z,48.38
2022-11-23T10:01:44.758Z,48.25
2022-11-23T10:04:18.672Z,47.78
2022-11-23T10:06:53.471Z,47.54
2022-11-23T10:09:33.337Z,47.31
2022-11-23T10:12:23.366Z,46.31
2022-11-23T10:15:10.847Z,46.55
2022-11-23T10:17:59.269Z,45.97
2022-11-23T10:20:55.551Z,46.60
2022-11-23T10:23:37.481Z,46.03
2022-11-23T10:26:05.522Z,47.06
2022-11-23T10:28:36.346Z,47.00
2022-11-23T10:31:13.854Z,46.18
2022-11-23T10:33:50.660Z,45.96
2022-11-23T10:36:18.533Z,46.79
2022-11-23T10:38:50.621Z,46.28
2022-11-23T10:41:18.835Z,46.66
2022-11-23T10:43:54.894Z,45.63
2022-11-23T10:46:41.419Z,45.27
2022-11-23T10:49:17.395Z,45.47
2022-11-23T10:51:57.137Z,45.49
2022-11-23T10:54:29.055Z,46.08
2022-11-23T10:56:58.309Z,46.36
2022-11-23T10:59:35.116Z,46.10
2022-11-23T11:02:15.049Z,46.43
2022-11-23T11:04:44.851Z,46.66
2022-11-23T11:07:23.749Z,45.09
2022-11-23T11:09:56.758Z,45.77
2022-11-23T11:12:25.600Z,46.33
2022-11-23T11:15:05.202Z,45.47
2022-11-23T11:17:39.401Z,46.56
2022-11-23T11:23:02.998Z,45.39
2022-11-23T11:25:35.750Z,45.41
2022-11-23T11:28:05.513Z,45.77
2022-11-23T11:30:46.622Z,44.27
2022-11-23T11:33:21.005Z,44.96
2022-11-23T11:35:52.996Z,45.32
2022-11-23T11:38:27.852Z,44.45
2022-11-23T11:40:58.727Z,45.58
2022-11-23T11:43:39.097Z,44.93
2022-11-23T11:46:30.168Z,43.98
2022-11-23T11:49:01.107Z,44.69
2022-11-23T11:51:33.412Z,43.97
2022-11-23T11:54:07.553Z,44.23
2022-11-23T11:56:39.088Z,44.31
2022-11-23T11:59:15.974Z,43.44
2022-11-23T12:01:52.502Z,43.59
2022-11-23T12:04:29.053Z,43.76
2022-11-23T12:07:06.288Z,43.14
2022-11-23T12:09:44.775Z,43.32
2022-11-23T12:12:16.674Z,43.88
2022-11-23T12:14:46.762Z,43.87
2022-11-23T12:17:34.601Z,43.37
2022-11-23T12:20:12.622Z,43.04
2022-11-23T12:22:53.132Z,43.32
2022-11-23T12:25:30.794Z,43.49
2022-11-23T12:28:10.851Z,43.23
2022-11-23T12:30:48.906Z,42.69
2022-11-23T12:33:40.288Z,43.08
2022-11-23T12:36:27.091Z,43.09
2022-11-23T12:38:57.096Z,44.07
2022-11-23T12:41:38.340Z,43.31
2022-11-23T12:44:38.824Z,42.98
2022-11-23T12:47:17.951Z,42.50
2022-11-23T12:49:52.130Z,43.75
2022-11-23T12:52:36.481Z,43.02
2022-11-23T12:55:20.306Z,42.65
2022-11-23T12:57:57.361Z,43.02
2022-11-23T13:00:28.288Z,43.45
2022-11-23T13:03:29.737Z,43.00
2022-11-23T13:06:22.144Z,43.29
2022-11-23T13:09:04.558Z,42.91
2022-11-23T13:11:46.153Z,43.01
2022-11-23T13:14:25.739Z,42.97
2022-11-23T13:17:18.430Z,42.45
2022-11-23T13:20:13.932Z,42.83
2022-11-23T13:22:45.984Z,43.78
2022-11-23T13:25:32.480Z,42.43
2022-11-23T13:28:05.580Z,43.25
2022-11-23T13:31:07.323Z,43.06
2022-11-23T13:33:37.645Z,43.04
2022-11-23T13:36:13.892Z,43.47
2022-11-23T13:38:46.509Z,43.50
2022-11-23T13:41:57.109Z,42.39
2022-11-23T13:44:27.846Z,43.28
2022-11-23T13:47:06.725Z,42.52
2022-11-23T13:49:42.897Z,42.36
2022-11-23T13:52:32.756Z,42.59
2022-11-23T13:55:09.861Z,42.99
2022-11-23T13:57:39.426Z,43.15
2022-11-23T14:00:47.373Z,42.60
2022-11-23T14:03:48.996Z,42.23
2022-11-23T14:06:24.682Z,42.98
2022-11-23T14:08:59.580Z,42.70
2022-11-23T14:11:28.895Z,43.53
2022-11-23T14:14:02.075Z,43.02
2022-11-23T14:16:50.987Z,42.46
2022-11-23T14:19:24.398Z,42.63
2022-11-23T14:22:04.606Z,42.49
2022-11-23T14:25:00.526Z,42.33
2022-11-23T14:27:47.904Z,42.49
2022-11-23T14:30:24.907Z,42.64
2022-11-23T14:33:04.474Z,42.91
2022-11-23T14:35:45.843Z,42.53
2022-11-23T14:38:55.596Z,42.60
2022-11-23T14:41:25.674Z,43.40
2022-11-23T14:43:55.272Z,43.28
2022-11-23T14:46:25.662Z,43.04
2022-11-23T14:49:03.497Z,43.34
2022-11-23T14:51:34.023Z,43.14
2022-11-23T14:54:09.268Z,43.18
2022-11-23T14:56:40.281Z,43.37
2022-11-23T14:59:11.287Z,43.47
2022-11-23T15:01:42.124Z,43.23
2022-11-23T15:04:22.347Z,43.77
2022-11-23T15:06:56.911Z,43.09
2022-11-23T15:09:38.064Z,42.91
2022-11-23T15:12:20.679Z,43.03
2022-11-23T15:14:48.896Z,44.18
2022-11-23T15:17:19.173Z,43.93
2022-11-23T15:19:55.532Z,44.35
2022-11-23T15:22:25.617Z,44.60
2022-11-23T15:24:53.701Z,44.85
2022-11-23T15:27:28.258Z,44.75
2022-11-23T15:29:58.067Z,44.71
2022-11-23T15:32:33.211Z,45.20
2022-11-23T15:35:06.804Z,44.80
2022-11-23T15:37:42.226Z,45.58
2022-11-23T15:40:13.954Z,45.29
2022-11-23T15:42:43.003Z,45.46
2022-11-23T15:45:36.338Z,45.97
2022-11-23T15:48:04.986Z,46.02
2022-11-23T15:50:34.412Z,46.00
2022-11-23T15:53:03.980Z,45.74
2022-11-23T15:55:31.985Z,46.10
2022-11-23T15:58:02.597Z,46.31
2022-11-23T16:00:31.253Z,46.43
2022-11-23T16:03:31.714Z,46.88
2022-11-23T16:06:36.810Z,47.42
2022-11-23T16:09:53.299Z,47.87
2022-11-23T16:12:28.770Z,47.34
2022-11-23T16:14:58.396Z,47.53
2022-11-23T16:17:27.537Z,47.46
2022-11-23T16:19:57.165Z,47.66
2022-11-23T16:22:30.357Z,48.04
2022-11-23T16:25:08.028Z,48.41
2022-11-23T16:27:37.259Z,48.04
2022-11-23T16:30:05.992Z,48.11
2022-11-23T16:32:33.813Z,48.07
2022-11-23T16:35:18.384Z,49.25
2022-11-23T16:37:47.044Z,48.68
2022-11-23T16:40:16.799Z,48.97
2022-11-23T16:42:44.936Z,48.67
2022-11-23T16:45:12.797Z,49.01
2022-11-23T16:47:53.070Z,50.04
2022-11-23T16:50:21.277Z,49.06
2022-11-23T16:52:49.080Z,49.44
2022-11-23T16:55:18.453Z,49.58
2022-11-23T16:57:47.051Z,49.76
2022-11-23T17:00:19.010Z,50.09
2022-11-23T17:02:46.914Z,49.42
2022-11-23T17:05:16.461Z,49.52
2022-11-23T17:07:44.445Z,50.15
2022-11-23T17:10:13.040Z,49.73
2022-11-23T17:12:48.537Z,51.15
2022-11-23T17:15:24.446Z,51.03
2022-11-23T17:17:52.469Z,50.20
2022-11-23T17:20:20.560Z,49.96
2022-11-23T17:22:51.519Z,49.97
2022-11-23T17:25:20.218Z,50.00
2022-11-23T17:27:49.434Z,50.52
2022-11-23T17:30:20.712Z,50.70
2022-11-23T17:32:49.083Z,50.58
2022-11-23T17:35:17.589Z,50.52
2022-11-23T17:37:46.448Z,50.35
2022-11-23T17:40:16.294Z,50.99
2022-11-23T17:42:44.328Z,50.97
2022-11-23T17:45:14.604Z,51.07
2022-11-23T17:47:44.793Z,50.80
2022-11-23T17:50:17.506Z,50.81
2022-11-23T17:52:45.515Z,51.01
2022-11-23T17:55:14.053Z,51.26
2022-11-23T17:57:42.408Z,50.82
2022-11-23T18:00:18.358Z,51.99
2022-11-23T18:02:46.341Z,50.98
2022-11-23T18:05:20.857Z,50.94
2022-11-23T18:07:49.724Z,51.09
2022-11-23T18:10:18.140Z,51.13
2022-11-23T18:12:46.181Z,51.34
2022-11-23T18:15:15.857Z,51.42
2022-11-23T18:17:44.212Z,50.99
2022-11-23T18:20:13.317Z,51.41
2022-11-23T18:22:41.199Z,51.31
2022-11-23T18:25:09.873Z,50.95
2022-11-23T18:27:37.728Z,51.51
2022-11-23T18:30:06.689Z,51.18
2022-11-23T18:32:36.017Z,51.13
2022-11-23T18:35:05.090Z,51.11
2022-11-23T18:37:33.017Z,51.06
2022-11-23T18:40:00.817Z,50.98
2022-11-23T18:42:28.637Z,51.01
2022-11-23T18:44:56.785Z,51.36
2022-11-23T18:47:25.032Z,51.05
2022-11-23T18:49:58.802Z,51.65
2022-11-23T18:52:29.855Z,51.44
2022-11-23T18:54:59.640Z,51.24
2022-11-23T18:57:27.539Z,51.32
2022-11-23T18:59:58.272Z,51.29
2022-11-23T19:02:26.771Z,51.76
2022-11-23T19:04:55.974Z,51.55
2022-11-23T19:07:27.112Z,51.80
2022-11-23T19:09:55.397Z,51.74
2022-11-23T19:12:23.308Z,51.88
2022-11-23T19:14:51.139Z,52.11
2022-11-23T19:17:19.110Z,52.33
2022-11-23T19:19:46.946Z,51.77
2022-11-23T19:22:19.040Z,52.29
2022-11-23T19:24:46.877Z,52.14
2022-11-23T19:27:14.617Z,52.15
2022-11-23T19:29:42.542Z,52.24
2022-11-23T19:32:10.494Z,51.96
2022-11-23T19:34:38.365Z,51.93
2022-11-23T19:37:06.205Z,51.78
2022-11-23T19:39:36.294Z,51.97
2022-11-23T19:42:06.985Z,52.22
2022-11-23T19:44:35.059Z,52.03
2022-11-23T19:47:05.167Z,52.10
2022-11-23T19:49:35.357Z,51.83
2022-11-23T19:52:05.157Z,51.74
2022-11-23T19:54:33.204Z,51.81
2022-11-23T19:57:02.426Z,51.62
2022-11-23T19:59:30.497Z,51.67
2022-11-23T20:01:58.420Z,51.79
2022-11-23T20:04:26.318Z,52.00
2022-11-23T20:06:54.113Z,51.91
2022-11-23T20:09:22.635Z,51.76
2022-11-23T20:11:51.577Z,51.84
2022-11-23T20:14:21.314Z,51.73
2022-11-23T20:16:49.365Z,51.58
2022-11-23T20:19:17.193Z,51.69
2022-11-23T20:21:45.043Z,52.16
2022-11-23T20:24:14.547Z,51.84
2022-11-23T20:26:43.254Z,51.71
2022-11-23T20:29:11.671Z,51.86
2022-11-23T20:31:41.039Z,51.99
2022-11-23T20:34:13.127Z,51.83
2022-11-23T20:36:43.600Z,51.79
2022-11-23T20:39:12.465Z,51.75
2022-11-23T20:41:40.613Z,52.02
2022-11-23T20:44:12.134Z,51.96
2022-11-23T20:49:31.029Z,52.11
2022-11-23T20:51:58.904Z,52.10
2022-11-23T20:54:26.997Z,52.07
2022-11-23T20:56:54.906Z,51.84
2022-11-23T20:59:23.848Z,52.29
2022-11-23T21:01:53.283Z,51.86
2022-11-23T21:04:21.236Z,51.91
2022-11-23T21:06:49.020Z,52.14
2022-11-23T21:09:17.258Z,52.11
2022-11-23T21:12:02.872Z,52.22
2022-11-23T21:14:32.914Z,52.12
2022-11-23T21:17:02.677Z,51.88
2022-11-23T21:19:32.015Z,51.98
2022-11-23T21:22:03.422Z,51.82
2022-11-23T21:24:31.630Z,51.69
2022-11-23T21:26:59.870Z,52.21
2022-11-23T21:29:28.320Z,51.86
2022-11-23T21:31:56.093Z,51.92
2022-11-23T21:34:27.411Z,52.18
2022-11-23T21:36:57.083Z,51.96
2022-11-23T21:39:25.173Z,52.30
2022-11-23T21:41:54.543Z,52.30
2022-11-23T21:44:23.140Z,51.99
2022-11-23T21:46:51.601Z,52.07
2022-11-23T21:49:19.527Z,52.27
2022-11-23T21:51:49.463Z,52.53
2022-11-23T21:54:17.330Z,52.14
2022-11-23T21:56:46.817Z,52.33
2022-11-23T21:59:15.143Z,52.39
2022-11-23T22:01:43.221Z,52.38
2022-11-23T22:04:13.140Z,52.03
2022-11-23T22:06:42.049Z,52.40
2022-11-23T22:09:12.272Z,52.38
2022-11-23T22:11:41.804Z,52.27
2022-11-23T22:14:12.718Z,52.92
2022-11-23T22:16:42.619Z,52.40
2022-11-23T22:19:12.232Z,52.53
2022-11-23T22:21:41.512Z,52.46
2022-11-23T22:24:13.518Z,52.88
2022-11-23T22:26:41.449Z,52.67
2022-11-23T22:29:09.649Z,52.46
2022-11-23T22:31:38.171Z,52.45
2022-11-23T22:34:07.363Z,52.37
2022-11-23T22:36:35.397Z,52.58
2022-11-23T22:39:05.954Z,52.36
2022-11-23T22:41:37.036Z,52.65
2022-11-23T22:44:06.786Z,52.34
2022-11-23T22:46:34.824Z,52.17
2022-11-23T22:49:03.029Z,52.37
2022-11-23T22:51:30.902Z,51.99
2022-11-23T22:54:00.149Z,52.38
2022-11-23T22:56:29.463Z,52.40
2022-11-23T22:58:58.900Z,52.58
2022-11-23T23:01:28.507Z,52.42
2022-11-23T23:03:57.749Z,52.20
2022-11-23T23:06:27.643Z,52.52
2022-11-23T23:08:57.958Z,52.83
2022-11-23T23:11:26.844Z,52.56
2022-11-23T23:13:55.111Z,52.46
2022-11-23T23:16:24.958Z,52.93
2022-11-23T23:18:53.122Z,52.53
2022-11-23T23:21:22.256Z,52.58
2022-11-23T23:23:51.362Z,52.91
2022-11-23T23:26:21.643Z,52.46
2022-11-23T23:28:50.900Z,52.59
2022-11-23T23:31:18.861Z,52.67
2022-11-23T23:33:48.161Z,52.72
2022-11-23T23:36:16.853Z,52.49
2022-11-23T23:38:44.944Z,52.86
2022-11-23T23:41:13.776Z,52.46
2022-11-23T23:43:41.956Z,52.53
2022-11-23T23:46:11.342Z,52.87
2022-11-23T23:48:40.327Z,52.79
2022-11-23T23:51:11.039Z,52.96
2022-11-23T23:53:39.804Z,52.80
2022-11-23T23:56:11.398Z,53.02
2022-11-23T23:58:39.277Z,52.74
